Time;durP1;ratioP1;P1;durP2;ratioP2;P2;SDS_P1;SDS_P2;PMS_P1;PMS_P2;Temp;Humidity;BMP_temperature;BMP_pressure;BME280_temperature;BME280_humidity;BME280_pressure;Samples;Min_cycle;Max_cycle;Signal;HPM_P1;HPM_P2
2021/12/02 00:01:02;;;;;;;;;;;;;;;7.02;100.00;97527.54;1753228;80;20124;-84
2021/12/02 00:03:33;;;;;;;;;;;;;;;7.04;100.00;97528.17;1740671;80;20463;-81
2021/12/02 00:05:59;;;;;;;;;;;;;;;7.04;100.00;97540.46;1761172;80;20137;-83
2021/12/02 00:08:25;;;;;;;;;;;;;;;7.05;100.00;97555.21;1759746;80;21171;-83
2021/12/02 00:10:54;;;;;;;;;;;;;;;6.95;100.00;97544.59;1756804;80;20202;-80
2021/12/02 00:13:24;;;;;;;;;;;;;;;6.92;100.00;97535.00;1755848;80;20179;-80
2021/12/02 00:16:00;;;;;;;;;;;;;;;7.00;100.00;97538.75;1757692;80;20260;-81
2021/12/02 00:21:04;;;;;;;;;;;;;;;7.09;100.00;97527.06;1748264;80;20155;-80
2021/12/02 00:23:34;;;;;;;;;;;;;;;7.04;100.00;97522.92;1753744;80;20199;-80
2021/12/02 00:26:05;;;;;;;;;;;;;;;7.04;100.00;97530.80;1757165;80;20119;-82
2021/12/02 00:28:32;;;;;;;;;;;;;;;7.03;100.00;97522.61;1748999;80;20154;-79
2021/12/02 00:30:59;;;;;;;;;;;;;;;6.96;100.00;97524.39;1754930;80;20222;-80
2021/12/02 00:33:25;;;;;;;;;;;;;;;7.01;100.00;97527.26;1755862;80;21054;-82
2021/12/02 00:35:52;;;;;;;;;;;;;;;7.09;100.00;97511.32;1749318;80;20170;-82
2021/12/02 00:38:20;;;;;;;;;;;;;;;6.99;100.00;97509.09;1752887;80;20176;-81
2021/12/02 00:40:46;;;;;;;;;;;;;;;7.16;100.00;97506.08;1751745;80;20258;-83
2021/12/02 00:43:12;;;;;;;;;;;;;;;7.19;100.00;97502.57;1758154;80;20139;-83
2021/12/02 00:45:45;;;;;;;;;;;;;;;7.22;100.00;97493.98;1753196;80;21103;-84
2021/12/02 00:48:12;;;;;;;;;;;;;;;7.22;100.00;97496.61;1757199;80;20104;-84
2021/12/02 00:50:42;;;;;;;;;;;;;;;7.26;100.00;97508.33;1749694;80;20204;-87
2021/12/02 00:53:12;;;;;;;;;;;;;;;7.25;100.00;97506.70;1749456;80;20165;-89
2021/12/02 00:55:39;;;;;;;;;;;;;;;7.21;100.00;97526.47;1750325;80;20316;-85
2021/12/02 00:58:04;;;;;;;;;;;;;;;7.28;100.00;97508.93;1732293;80;21033;-81
2021/12/02 01:00:32;;;;;;;;;;;;;;;7.31;100.00;97512.47;1755622;80;20665;-82
2021/12/02 01:03:00;;;;;;;;;;;;;;;7.32;100.00;97511.47;1750899;80;20164;-84
2021/12/02 01:05:26;;;;;;;;;;;;;;;7.33;100.00;97508.64;1752049;80;20537;-81
2021/12/02 01:07:54;;;;;;;;;;;;;;;7.35;100.00;97498.73;1752098;80;20188;-86
2021/12/02 01:10:20;;;;;;;;;;;;;;;7.41;100.00;97503.70;1757995;80;21177;-81
2021/12/02 01:12:48;;;;;;;;;;;;;;;7.37;100.00;97505.10;1738249;80;20205;-82
2021/12/02 01:15:17;;;;;;;;;;;;;;;7.21;100.00;97494.98;1736975;81;20164;-81
2021/12/02 01:17:44;;;;;;;;;;;;;;;7.41;100.00;97502.88;1696650;82;20212;-83
2021/12/02 01:20:10;;;;;;;;;;;;;;;7.49;100.00;97500.87;1734584;81;20499;-81
2021/12/02 01:22:37;;;;;;;;;;;;;;;7.34;100.00;97495.80;1726160;81;21175;-88
2021/12/02 01:25:04;;;;;;;;;;;;;;;7.54;100.00;97499.75;1730738;81;20151;-82
2021/12/02 01:27:30;;;;;;;;;;;;;;;7.50;100.00;97494.62;1736044;81;20185;-85
2021/12/02 01:29:56;;;;;;;;;;;;;;;7.47;100.00;97489.77;1729519;81;21215;-82
2021/12/02 01:32:24;;;;;;;;;;;;;;;7.47;100.00;97495.02;1735362;81;20303;-83
2021/12/02 01:34:50;;;;;;;;;;;;;;;7.51;100.00;97497.52;1727169;81;21167;-82
2021/12/02 01:37:16;;;;;;;;;;;;;;;7.49;100.00;97500.87;1732263;81;20152;-81
2021/12/02 01:39:42;;;;;;;;;;;;;;;7.57;100.00;97499.03;1735118;81;20403;-82
2021/12/02 01:42:10;;;;;;;;;;;;;;;7.43;100.00;97492.48;1730842;81;20673;-82
2021/12/02 01:44:37;;;;;;;;;;;;;;;7.63;100.00;97492.97;1724834;81;20519;-82
2021/12/02 01:47:03;;;;;;;;;;;;;;;7.65;100.00;97493.59;1730403;81;21110;-82
2021/12/02 01:49:36;;;;;;;;;;;;;;;7.63;100.00;97499.05;1735871;81;20274;-81
2021/12/02 01:51:59;;;;;;;;;;;;;;;7.63;100.00;97492.97;1726380;81;20165;-81
2021/12/02 01:54:26;;;;;;;;;;;;;;;7.43;100.00;97487.23;1730124;81;20245;-83
2021/12/02 01:56:58;;;;;;;;;;;;;;;7.70;100.00;97493.78;1732218;81;20216;-83
2021/12/02 01:59:28;;;;;;;;;;;;;;;7.68;100.00;97490.56;1733094;81;21171;-82
2021/12/02 02:02:02;;;;;;;;;;;;;;;7.76;100.00;97494.80;1730751;81;20131;-83
2021/12/02 02:04:29;;;;;;;;;;;;;;;7.72;100.00;97489.12;1735999;81;20118;-86
2021/12/02 02:06:57;;;;;;;;;;;;;;;7.36;100.00;97483.78;1735292;81;20209;-82
2021/12/02 02:09:28;;;;;;;;;;;;;;;7.48;100.00;97483.48;1733428;81;20205;-82
2021/12/02 02:11:54;;;;;;;;;;;;;;;7.43;100.00;97476.73;1732591;80;21108;-83
2021/12/02 02:14:21;;;;;;;;;;;;;;;7.63;100.00;97485.09;1765573;80;20141;-80
2021/12/02 02:16:49;;;;;;;;;;;;;;;7.52;100.00;97479.46;1760645;80;20109;-81
2021/12/02 02:19:14;;;;;;;;;;;;;;;7.51;100.00;97468.64;1756873;80;20245;-81
2021/12/02 02:21:40;;;;;;;;;;;;;;;7.52;100.00;97478.14;1763170;80;20205;-85
2021/12/02 02:24:11;;;;;;;;;;;;;;;7.52;100.00;97476.03;1765615;80;21123;-88
2021/12/02 02:26:36;;;;;;;;;;;;;;;7.53;100.00;97486.82;1759981;80;20120;-80
2021/12/02 02:29:02;;;;;;;;;;;;;;;7.39;100.00;97484.70;1758873;80;20170;-82
2021/12/02 02:31:29;;;;;;;;;;;;;;;7.35;100.00;97488.23;1739165;80;20209;-84
2021/12/02 02:33:56;;;;;;;;;;;;;;;7.48;100.00;97482.17;1757962;80;20181;-87
2021/12/02 02:36:26;;;;;;;;;;;;;;;7.52;100.00;97491.28;1731786;80;21292;-90
2021/12/02 02:38:55;;;;;;;;;;;;;;;7.52;100.00;97484.70;1757747;80;20696;-83
2021/12/02 02:41:24;;;;;;;;;;;;;;;7.50;100.00;97484.59;1756773;80;20213;-82
2021/12/02 02:43:51;;;;;;;;;;;;;;;7.50;100.00;97486.74;1759215;80;20146;-85
2021/12/02 02:46:23;;;;;;;;;;;;;;;7.49;100.00;97485.11;1757392;80;20138;-83
2021/12/02 02:48:48;;;;;;;;;;;;;;;7.45;100.00;97494.91;1759867;79;20118;-82
2021/12/02 02:51:14;;;;;;;;;;;;;;;7.36;100.00;97492.97;1762763;79;20159;-86
2021/12/02 02:53:42;;;;;;;;;;;;;;;7.38;100.00;97494.92;1757212;79;20630;-88
2021/12/02 02:56:11;;;;;;;;;;;;;;;7.26;100.00;97494.69;1759104;80;20123;-88
2021/12/02 03:09:39;;;;;;;;;;;;;;;7.42;99.73;97475.11;1746356;80;20126;-83
2021/12/02 03:11:57;;;;;;;;;;;;;;;7.53;99.37;97481.05;1755888;80;20189;-84
2021/12/02 03:14:30;;;;;;;;;;;;;;;7.51;99.09;97473.89;1757157;80;20161;-83
2021/12/02 03:16:53;;;;;;;;;;;;;;;7.58;99.00;97463.89;1753053;80;20202;-84
2021/12/02 03:19:22;;;;;;;;;;;;;;;7.57;98.29;97464.41;1745834;79;20178;-83
2021/12/02 03:21:51;;;;;;;;;;;;;;;7.54;98.82;97453.80;1759441;80;20104;-85
2021/12/02 03:24:17;;;;;;;;;;;;;;;7.60;98.03;97460.55;1747324;80;20190;-84
2021/12/02 03:26:47;;;;;;;;;;;;;;;7.54;98.26;97458.25;1756668;80;21181;-84
2021/12/02 03:29:13;;;;;;;;;;;;;;;7.51;98.49;97452.89;1754811;80;20160;-87
2021/12/02 03:31:40;;;;;;;;;;;;;;;7.58;98.10;97463.89;1748793;80;20177;-85
2021/12/02 03:34:07;;;;;;;;;;;;;;;7.56;98.05;97464.09;1745589;80;20166;-83
2021/12/02 03:36:33;;;;;;;;;;;;;;;7.54;98.01;97459.05;1749880;80;20182;-82
2021/12/02 03:38:59;;;;;;;;;;;;;;;7.53;98.19;97462.67;1744947;80;21157;-84
2021/12/02 03:41:26;;;;;;;;;;;;;;;7.64;97.60;97459.14;1760787;80;20148;-83
2021/12/02 03:43:53;;;;;;;;;;;;;;;7.64;97.11;97459.14;1757795;80;20857;-83
2021/12/02 03:46:22;;;;;;;;;;;;;;;7.67;96.94;97466.61;1748460;80;20654;-87
2021/12/02 03:48:50;;;;;;;;;;;;;;;7.49;97.09;97471.98;1748808;80;20228;-85
2021/12/02 03:51:17;;;;;;;;;;;;;;;7.54;97.16;97465.61;1749376;80;21013;-86
2021/12/02 03:53:43;;;;;;;;;;;;;;;7.51;96.71;97472.58;1762120;80;20158;-82
2021/12/02 03:56:09;;;;;;;;;;;;;;;7.46;96.83;97457.15;1723911;81;20238;-83
2021/12/02 03:58:39;;;;;;;;;;;;;;;7.50;96.46;97468.36;1739263;81;20197;-83
2021/12/02 04:01:07;;;;;;;;;;;;;;;7.50;95.91;97465.73;1743002;81;20177;-85
2021/12/02 04:03:34;;;;;;;;;;;;;;;7.41;96.18;97471.37;1735927;81;20964;-80
2021/12/02 04:06:00;;;;;;;;;;;;;;;7.47;96.06;97474.50;1741263;81;20173;-87
2021/12/02 04:14:00;;;;;;;;;;;;;;;7.43;95.72;97475.42;1741643;81;20135;-84
2021/12/02 04:16:20;;;;;;;;;;;;;;;7.23;95.44;97475.92;1740297;81;20169;-82
2021/12/02 04:18:46;;;;;;;;;;;;;;;7.35;95.47;97491.38;1713686;81;20146;-80
2021/12/02 04:21:16;;;;;;;;;;;;;;;7.42;95.12;97486.13;1742014;81;20215;-86
2021/12/02 04:23:44;;;;;;;;;;;;;;;7.21;94.76;97471.36;1738228;81;20112;-82
2021/12/02 04:26:10;;;;;;;;;;;;;;;7.32;94.72;97478.14;1736940;81;20191;-82
2021/12/02 04:28:35;;;;;;;;;;;;;;;7.32;94.52;97485.22;1742712;81;21953;-87
2021/12/02 04:31:01;;;;;;;;;;;;;;;7.22;94.20;97488.73;1742570;81;20134;-82
2021/12/02 04:33:28;;;;;;;;;;;;;;;7.18;93.25;97496.20;1743296;80;20150;-81
2021/12/02 04:35:55;;;;;;;;;;;;;;;7.27;93.16;97494.18;1744095;81;20241;-82
2021/12/02 04:38:22;;;;;;;;;;;;;;;7.25;92.75;97498.83;1740355;81;20174;-84
2021/12/02 04:40:48;;;;;;;;;;;;;;;7.19;93.03;97503.05;1741003;81;21294;-85
2021/12/02 04:43:13;;;;;;;;;;;;;;;7.07;92.67;97502.84;1736276;81;20934;-84
2021/12/02 04:45:39;;;;;;;;;;;;;;;7.06;92.61;97503.84;1736049;81;20286;-86
2021/12/02 04:48:06;;;;;;;;;;;;;;;6.93;92.76;97506.42;1737629;81;20181;-80
2021/12/02 04:50:32;;;;;;;;;;;;;;;7.05;92.24;97502.22;1739931;81;20293;-82
2021/12/02 04:52:57;;;;;;;;;;;;;;;7.13;92.34;97509.09;1738459;81;21053;-82
2021/12/02 04:55:23;;;;;;;;;;;;;;;7.19;91.17;97511.75;1738539;81;20171;-86
2021/12/02 04:57:49;;;;;;;;;;;;;;;7.22;90.70;97518.91;1740058;81;20134;-82
2021/12/02 05:00:15;;;;;;;;;;;;;;;7.03;90.29;97509.49;1741496;81;20129;-84
2021/12/02 05:02:41;;;;;;;;;;;;;;;7.02;89.87;97513.11;1736525;80;20196;-84
2021/12/02 05:05:10;;;;;;;;;;;;;;;7.04;89.34;97509.80;1722683;80;21103;-85
2021/12/02 05:07:38;;;;;;;;;;;;;;;7.05;88.59;97517.96;1738711;80;20216;-82
2021/12/02 05:10:04;;;;;;;;;;;;;;;7.06;88.25;97518.28;1736572;81;20183;-84
2021/12/02 05:12:29;;;;;;;;;;;;;;;7.02;88.35;97515.73;1735192;81;20190;-83
2021/12/02 05:14:55;;;;;;;;;;;;;;;7.07;87.84;97534.34;1768222;79;20171;-83
2021/12/02 05:17:21;;;;;;;;;;;;;;;7.04;87.03;97532.11;1744603;80;21253;-83
2021/12/02 05:19:49;;;;;;;;;;;;;;;7.12;87.28;97548.98;1748662;80;20184;-81
2021/12/02 05:22:15;;;;;;;;;;;;;;;7.13;87.31;97532.23;1705282;81;20477;-82
2021/12/02 05:24:40;;;;;;;;;;;;;;;7.21;87.06;97546.16;1773648;80;20114;-81
2021/12/02 05:27:08;;;;;;;;;;;;;;;7.14;87.34;97538.28;1757157;80;20402;-82
2021/12/02 05:29:34;;;;;;;;;;;;;;;7.19;87.41;97547.19;1752121;79;21153;-84
2021/12/02 05:32:00;;;;;;;;;;;;;;;7.12;87.59;97542.41;1764396;79;21122;-83
2021/12/02 05:34:25;;;;;;;;;;;;;;;7.22;87.76;97553.03;1750037;79;20568;-81
2021/12/02 05:36:51;;;;;;;;;;;;;;;7.18;87.94;97554.75;1754824;79;20125;-82
2021/12/02 05:39:21;;;;;;;;;;;;;;;7.15;88.19;97547.27;1758209;79;20177;-83
2021/12/02 05:41:46;;;;;;;;;;;;;;;7.12;88.53;97560.78;1757671;80;20211;-82
2021/12/02 05:44:12;;;;;;;;;;;;;;;7.26;88.38;97560.31;1758622;79;20860;-82
2021/12/02 05:46:38;;;;;;;;;;;;;;;7.28;87.60;97558.80;1761863;79;20193;-87
2021/12/02 05:49:07;;;;;;;;;;;;;;;7.27;87.44;97563.25;1761553;80;20161;-85
2021/12/02 05:51:32;;;;;;;;;;;;;;;7.01;87.49;97569.23;1762996;79;20173;-83
2021/12/02 05:54:00;;;;;;;;;;;;;;;7.21;87.19;97574.55;1752229;80;20646;-82
2021/12/02 05:56:27;;;;;;;;;;;;;;;7.02;87.49;97582.64;1760858;80;20093;-84
2021/12/02 05:58:53;;;;;;;;;;;;;;;6.97;87.07;97584.55;1756365;79;20236;-85
2021/12/02 06:01:23;;;;;;;;;;;;;;;6.92;87.36;97597.96;1748198;80;20128;-84
2021/12/02 06:03:49;;;;;;;;;;;;;;;7.10;86.81;97589.05;1754000;80;20157;-84
2021/12/02 06:06:17;;;;;;;;;;;;;;;7.18;86.14;97601.98;1754828;80;22266;-82
2021/12/02 06:08:44;;;;;;;;;;;;;;;7.29;85.60;97616.88;1762557;80;20165;-82
2021/12/02 06:11:09;;;;;;;;;;;;;;;7.34;85.36;97613.94;1761104;80;20232;-82
2021/12/02 06:13:37;;;;;;;;;;;;;;;7.22;85.33;97617.34;1751592;80;20625;-83
2021/12/02 06:16:03;;;;;;;;;;;;;;;7.17;85.84;97627.91;1755851;79;20180;-82
2021/12/02 06:18:28;;;;;;;;;;;;;;;6.96;86.58;97620.16;1739405;80;21874;-83
2021/12/02 06:20:54;;;;;;;;;;;;;;;6.92;86.68;97625.51;1755320;80;20140;-83
2021/12/02 06:23:22;;;;;;;;;;;;;;;6.89;86.72;97633.26;1755172;80;20245;-84
2021/12/02 06:25:49;;;;;;;;;;;;;;;6.80;86.95;97631.28;1755910;80;20159;-85
2021/12/02 06:28:17;;;;;;;;;;;;;;;6.86;86.47;97639.41;1756553;79;20205;-85
2021/12/02 06:30:45;;;;;;;;;;;;;;;6.76;86.69;97651.06;1754441;80;21260;-85
2021/12/02 06:33:10;;;;;;;;;;;;;;;6.86;86.44;97644.66;1752912;80;20205;-86
2021/12/02 06:35:36;;;;;;;;;;;;;;;6.83;86.08;97643.22;1754191;80;20198;-83
2021/12/02 06:38:02;;;;;;;;;;;;;;;6.75;85.66;97649.42;1756818;80;20486;-86
2021/12/02 06:40:28;;;;;;;;;;;;;;;6.75;85.34;97652.05;1759844;80;20200;-90
2021/12/02 06:42:54;;;;;;;;;;;;;;;6.84;85.51;97664.52;1736716;80;21315;-86
2021/12/02 06:45:21;;;;;;;;;;;;;;;6.79;85.46;97662.95;1751758;80;20136;-86
2021/12/02 06:47:47;;;;;;;;;;;;;;;6.77;85.43;97664.45;1755229;80;20161;-85
2021/12/02 06:50:20;;;;;;;;;;;;;;;6.77;85.28;97659.22;1730941;80;20188;-86
2021/12/02 06:52:48;;;;;;;;;;;;;;;6.68;85.03;97661.71;1750353;80;20225;-87
2021/12/02 06:55:14;;;;;;;;;;;;;;;6.71;85.07;97669.67;1752461;80;20521;-88
2021/12/02 06:57:41;;;;;;;;;;;;;;;6.66;85.24;97679.43;1757940;80;20144;-84
2021/12/02 07:00:09;;;;;;;;;;;;;;;6.62;84.61;97671.15;1759892;79;20153;-84
2021/12/02 07:02:37;;;;;;;;;;;;;;;6.65;84.64;97669.96;1759245;80;20614;-87
2021/12/02 07:05:07;;;;;;;;;;;;;;;6.46;84.65;97689.30;1754698;80;20166;-85
2021/12/02 07:07:37;;;;;;;;;;;;;;;6.51;84.11;97694.45;1751986;79;20147;-86
2021/12/02 07:10:09;;;;;;;;;;;;;;;6.39;83.62;97695.48;1756507;79;21267;-90
2021/12/02 07:12:41;;;;;;;;;;;;;;;6.34;83.11;97693.44;1760874;80;21091;-83
2021/12/02 07:15:17;;;;;;;;;;;;;;;6.37;82.02;97698.30;1766063;80;20591;-83
2021/12/02 07:17:55;;;;;;;;;;;;;;;6.50;81.90;97702.03;1755904;80;20505;-87
2021/12/02 07:20:22;;;;;;;;;;;;;;;6.34;79.74;97699.16;1750033;79;20212;-84
2021/12/02 07:22:48;;;;;;;;;;;;;;;6.35;79.20;97717.32;1754245;80;21296;-83
2021/12/02 07:25:15;;;;;;;;;;;;;;;6.29;77.79;97702.34;1759256;79;20679;-89
2021/12/02 07:27:42;;;;;;;;;;;;;;;6.29;77.65;97710.21;1757707;80;20236;-86
2021/12/02 07:30:08;;;;;;;;;;;;;;;6.19;76.63;97717.59;1732524;80;20177;-84
2021/12/02 07:32:36;;;;;;;;;;;;;;;6.14;75.29;97716.02;1754167;80;21153;-84
2021/12/02 07:35:04;;;;;;;;;;;;;;;6.29;75.01;97737.25;1751368;80;20187;-85
2021/12/02 07:37:32;;;;;;;;;;;;;;;6.21;74.94;97727.38;1763997;80;20208;-85
2021/12/02 07:39:59;;;;;;;;;;;;;;;6.17;74.56;97728.75;1760251;80;20222;-85
2021/12/02 07:42:28;;;;;;;;;;;;;;;6.25;74.59;97732.58;1754791;80;20227;-86
2021/12/02 07:44:55;;;;;;;;;;;;;;;6.14;73.77;97725.20;1756717;79;21145;-86
2021/12/02 07:47:21;;;;;;;;;;;;;;;6.08;74.22;97730.20;1754553;80;20167;-84
2021/12/02 07:49:52;;;;;;;;;;;;;;;6.09;73.66;97713.48;1762676;80;20195;-89
2021/12/02 07:52:21;;;;;;;;;;;;;;;6.14;74.12;97724.72;1728856;80;20925;-88
2021/12/02 07:54:48;;;;;;;;;;;;;;;6.18;73.60;97729.07;1761720;80;20141;-89
2021/12/02 07:57:14;;;;;;;;;;;;;;;6.03;73.39;97731.74;1733728;80;21425;-87
2021/12/02 07:59:40;;;;;;;;;;;;;;;6.06;73.44;97740.06;1759308;79;20319;-86
2021/12/02 08:02:06;;;;;;;;;;;;;;;6.02;73.52;97767.62;1759215;79;20214;-85
2021/12/02 08:04:31;;;;;;;;;;;;;;;6.02;72.69;97741.42;1760049;80;20995;-87
2021/12/02 08:06:59;;;;;;;;;;;;;;;6.02;72.10;97751.90;1761437;80;20120;-85
2021/12/02 08:09:24;;;;;;;;;;;;;;;6.08;72.16;97749.05;1760428;79;21169;-85
2021/12/02 08:11:50;;;;;;;;;;;;;;;5.99;70.89;97744.41;1756950;80;20444;-87
2021/12/02 08:14:18;;;;;;;;;;;;;;;6.00;71.11;97740.80;1760964;79;20192;-87
2021/12/02 08:16:44;;;;;;;;;;;;;;;6.17;70.49;97733.98;1733549;80;20146;-87
2021/12/02 08:19:11;;;;;;;;;;;;;;;6.09;70.62;97758.03;1750775;80;20198;-86
2021/12/02 08:21:39;;;;;;;;;;;;;;;6.07;70.42;97774.41;1753563;79;21153;-86
2021/12/02 08:24:06;;;;;;;;;;;;;;;6.21;70.81;97757.52;1756132;80;20157;-88
2021/12/02 08:26:32;;;;;;;;;;;;;;;6.14;70.83;97759.26;1761502;80;20164;-86
2021/12/02 08:29:00;;;;;;;;;;;;;;;6.15;70.27;97755.65;1751602;80;20163;-88
2021/12/02 08:31:26;;;;;;;;;;;;;;;6.12;70.31;97767.30;1758885;80;20171;-87
2021/12/02 08:33:53;;;;;;;;;;;;;;;6.26;70.04;97773.02;1755762;80;21095;-87
2021/12/02 08:36:22;;;;;;;;;;;;;;;6.16;70.04;97762.52;1725167;80;20161;-86
2021/12/02 08:38:49;;;;;;;;;;;;;;;6.26;70.21;97801.00;1746751;80;20315;-87
2021/12/02 08:41:18;;;;;;;;;;;;;;;6.27;70.34;97800.02;1763275;80;20343;-86
2021/12/02 08:43:43;;;;;;;;;;;;;;;6.36;70.18;97779.23;1749357;80;20193;-88
2021/12/02 08:46:08;;;;;;;;;;;;;;;6.28;69.83;97771.52;1758555;80;21036;-86
2021/12/02 08:48:34;;;;;;;;;;;;;;;6.34;69.38;97785.17;1756543;80;20294;-88
2021/12/02 08:51:02;;;;;;;;;;;;;;;6.35;69.03;97796.47;1757333;80;20178;-86
2021/12/02 08:53:29;;;;;;;;;;;;;;;6.46;69.13;97790.23;1760067;80;20133;-86
2021/12/02 08:55:58;;;;;;;;;;;;;;;6.49;68.61;97780.36;1754434;80;20154;-86
2021/12/02 08:58:26;;;;;;;;;;;;;;;6.40;68.44;97775.25;1728802;80;22179;-86
2021/12/02 09:00:53;;;;;;;;;;;;;;;6.54;68.42;97787.15;1755656;80;20230;-85
2021/12/02 09:03:18;;;;;;;;;;;;;;;6.56;68.42;97791.22;1753718;80;20490;-89
2021/12/02 09:05:44;;;;;;;;;;;;;;;6.63;67.40;97795.20;1756881;80;20140;-86
2021/12/02 09:08:12;;;;;;;;;;;;;;;6.61;67.83;97829.48;1753445;80;20128;-87
2021/12/02 09:10:43;;;;;;;;;;;;;;;6.56;66.30;97820.06;1759620;80;21053;-89
2021/12/02 09:13:09;;;;;;;;;;;;;;;6.61;65.93;97789.34;1750518;80;20175;-86
2021/12/02 09:15:37;;;;;;;;;;;;;;;6.66;65.76;97835.47;1762464;80;20231;-85
2021/12/02 09:18:04;;;;;;;;;;;;;;;6.66;65.40;97844.65;1757125;80;20679;-85
2021/12/02 09:20:32;;;;;;;;;;;;;;;6.62;64.77;97825.86;1757764;80;20170;-85
2021/12/02 09:22:58;;;;;;;;;;;;;;;6.62;64.81;97806.70;1764075;80;21992;-86
2021/12/02 09:25:28;;;;;;;;;;;;;;;6.68;63.67;97834.80;1761784;80;20121;-84
2021/12/02 09:27:55;;;;;;;;;;;;;;;6.70;63.69;97819.68;1756687;80;20165;-85
2021/12/02 09:30:21;;;;;;;;;;;;;;;6.64;62.75;97854.53;1743733;80;20122;-86
2021/12/02 09:32:47;;;;;;;;;;;;;;;6.60;62.89;97820.48;1757988;80;20327;-85
2021/12/02 09:35:12;;;;;;;;;;;;;;;6.64;62.70;97855.84;1758369;80;21102;-87
2021/12/02 09:37:38;;;;;;;;;;;;;;;6.71;62.90;97826.56;1754644;80;20197;-88
2021/12/02 09:40:05;;;;;;;;;;;;;;;6.74;62.04;97810.45;1760139;80;20579;-86
2021/12/02 09:42:31;;;;;;;;;;;;;;;6.67;61.88;97806.94;1757319;80;21143;-84
2021/12/02 09:45:00;;;;;;;;;;;;;;;6.86;62.32;97820.41;1759656;80;20126;-85
2021/12/02 09:47:30;;;;;;;;;;;;;;;6.81;62.01;97848.02;1746922;80;21116;-85
2021/12/02 09:50:05;;;;;;;;;;;;;;;6.90;62.45;97812.45;1752961;80;20144;-86
2021/12/02 09:52:32;;;;;;;;;;;;;;;6.76;62.28;97839.91;1724870;80;20943;-86
2021/12/02 09:55:05;;;;;;;;;;;;;;;6.77;62.50;97820.53;1761951;80;20170;-89
2021/12/02 09:57:34;;;;;;;;;;;;;;;6.71;63.04;97831.80;1720879;80;20180;-88
2021/12/02 09:59:57;;;;;;;;;;;;;;;6.64;63.83;97806.01;1754961;80;20183;-88
2021/12/02 10:02:24;;;;;;;;;;;;;;;6.71;64.68;97796.88;1756513;80;20117;-91
2021/12/02 10:05:00;;;;;;;;;;;;;;;6.74;65.08;97839.77;1762900;80;20106;-85
2021/12/02 10:07:34;;;;;;;;;;;;;;;6.69;66.13;97829.84;1759676;80;20206;-84
2021/12/02 10:10:08;;;;;;;;;;;;;;;6.77;66.90;97806.09;1751256;80;20280;-87
2021/12/02 10:12:32;;;;;;;;;;;;;;;6.87;67.03;97819.39;1751351;80;20514;-87
2021/12/02 10:15:00;;;;;;;;;;;;;;;6.68;67.19;97812.98;1755756;80;20110;-84
2021/12/02 10:18:05;;;;;;;;;;;;;;;6.68;67.73;97828.25;1751414;80;20162;-86
2021/12/02 10:23:20;;;;;;;;;;;;;;;6.85;66.99;97810.91;1751100;80;20171;-85
2021/12/02 10:26:03;;;;;;;;;;;;;;;6.86;67.22;97880.75;1753438;80;20753;-86
2021/12/02 10:28:42;;;;;;;;;;;;;;;6.74;65.95;97813.06;1748723;80;20148;-86
2021/12/02 10:31:09;;;;;;;;;;;;;;;6.79;66.27;97825.10;1751362;80;20586;-88
2021/12/02 10:33:44;;;;;;;;;;;;;;;6.78;66.37;97805.11;1750470;80;20137;-85
2021/12/02 10:36:35;;;;;;;;;;;;;;;6.61;66.94;97831.30;1699265;80;38713;-85
2021/12/02 10:39:17;;;;;;;;;;;;;;;6.80;66.37;97812.28;1746393;80;21295;-84
2021/12/02 10:41:44;;;;;;;;;;;;;;;6.83;66.40;97817.66;1745364;80;20159;-83
2021/12/02 10:44:20;;;;;;;;;;;;;;;6.69;66.21;97811.48;1752169;80;20180;-85
2021/12/02 10:47:06;;;;;;;;;;;;;;;6.83;66.09;97814.52;1743982;80;20178;-86
2021/12/02 10:49:45;;;;;;;;;;;;;;;6.70;64.65;97822.30;1751078;80;20167;-85
2021/12/02 10:52:15;;;;;;;;;;;;;;;6.77;62.87;97846.76;1749598;80;20223;-85
2021/12/02 10:54:46;;;;;;;;;;;;;;;6.83;62.31;97831.58;1752057;80;20222;-90
2021/12/02 10:57:23;;;;;;;;;;;;;;;6.86;62.26;97838.77;1747954;80;21178;-83
2021/12/02 10:59:51;;;;;;;;;;;;;;;6.83;62.42;97838.13;1747165;80;20171;-90
2021/12/02 11:02:30;;;;;;;;;;;;;;;6.77;61.91;97848.06;1754795;80;20227;-84
2021/12/02 11:05:04;;;;;;;;;;;;;;;6.78;62.03;97845.77;1754760;80;21971;-89
2021/12/02 11:07:35;;;;;;;;;;;;;;;6.66;61.28;97885.30;1757161;80;20240;-83
2021/12/02 11:10:08;;;;;;;;;;;;;;;6.47;60.85;97842.16;1725506;80;20230;-85
2021/12/02 11:12:41;;;;;;;;;;;;;;;6.46;60.92;97870.20;1731676;81;20451;-84
2021/12/02 11:15:12;;;;;;;;;;;;;;;6.43;61.09;97859.25;1740310;80;20146;-85
2021/12/02 11:17:41;;;;;;;;;;;;;;;6.47;60.83;97879.66;1733551;80;21831;-88
2021/12/02 11:20:11;;;;;;;;;;;;;;;6.55;60.08;97894.98;1755827;80;21080;-86
2021/12/02 11:22:39;;;;;;;;;;;;;;;6.57;60.38;97856.26;1748173;80;21075;-85
2021/12/02 11:25:07;;;;;;;;;;;;;;;6.63;60.65;97881.73;1751461;80;20969;-85
2021/12/02 11:27:46;;;;;;;;;;;;;;;6.60;61.21;97861.13;1756725;80;20217;-87
2021/12/02 11:30:16;;;;;;;;;;;;;;;6.64;61.39;97852.70;1754689;80;21251;-86
2021/12/02 11:32:50;;;;;;;;;;;;;;;6.58;61.45;97863.14;1755029;80;20151;-86
2021/12/02 11:35:22;;;;;;;;;;;;;;;6.66;62.22;97853.83;1762836;80;20221;-86
2021/12/02 11:37:51;;;;;;;;;;;;;;;6.76;62.06;97858.27;1754111;80;20176;-86
2021/12/02 11:40:21;;;;;;;;;;;;;;;6.73;61.85;97856.02;1757666;80;20133;-85
2021/12/02 11:42:50;;;;;;;;;;;;;;;6.56;61.32;97917.59;1751337;80;21156;-88
2021/12/02 11:45:16;;;;;;;;;;;;;;;6.58;61.16;97872.31;1757964;80;20143;-85
2021/12/02 11:47:43;;;;;;;;;;;;;;;6.41;61.36;97900.06;1756538;80;20159;-85
2021/12/02 11:50:09;;;;;;;;;;;;;;;6.58;61.47;97876.25;1752318;80;20942;-87
2021/12/02 11:52:37;;;;;;;;;;;;;;;6.57;61.23;97864.12;1757819;80;20222;-85
2021/12/02 11:55:07;;;;;;;;;;;;;;;6.58;61.72;97874.94;1756208;80;21921;-85
2021/12/02 11:57:33;;;;;;;;;;;;;;;6.48;61.78;97892.30;1761000;80;21016;-86
2021/12/02 12:00:02;;;;;;;;;;;;;;;6.45;61.90;97892.16;1757975;80;20228;-87
2021/12/02 12:02:30;;;;;;;;;;;;;;;6.47;62.16;97875.73;1759997;80;20183;-85
2021/12/02 12:05:05;;;;;;;;;;;;;;;6.63;61.81;97882.57;1757715;80;20440;-84
2021/12/02 12:07:38;;;;;;;;;;;;;;;6.69;61.55;97877.56;1752625;80;20158;-83
2021/12/02 12:10:26;;;;;;;;;;;;;;;6.66;61.06;97860.38;1751059;80;20174;-87
2021/12/02 12:12:54;;;;;;;;;;;;;;;6.70;61.26;97892.31;1757257;80;20609;-86
2021/12/02 12:15:38;;;;;;;;;;;;;;;6.68;60.96;97887.25;1759824;80;20264;-85
2021/12/02 12:18:04;;;;;;;;;;;;;;;6.78;59.89;97885.11;1752974;80;20131;-86
2021/12/02 12:21:04;;;;;;;;;;;;;;;6.65;60.51;97885.81;1752900;80;21258;-84
2021/12/02 12:23:36;;;;;;;;;;;;;;;6.68;60.14;97892.98;1752844;80;20141;-88
2021/12/02 12:26:34;;;;;;;;;;;;;;;6.58;60.09;97899.84;1753285;80;20229;-87
2021/12/02 12:29:13;;;;;;;;;;;;;;;6.68;60.24;97900.37;1750535;80;20527;-86
2021/12/02 12:31:56;;;;;;;;;;;;;;;6.72;60.35;97901.59;1752297;80;20516;-85
2021/12/02 12:34:41;;;;;;;;;;;;;;;6.56;59.94;97914.97;1751992;80;20172;-85
2021/12/02 12:37:05;;;;;;;;;;;;;;;6.45;59.80;97902.64;1750841;80;20225;-84
2021/12/02 12:39:32;;;;;;;;;;;;;;;6.55;59.32;97904.16;1752437;80;20159;-86
2021/12/02 12:42:15;;;;;;;;;;;;;;;6.44;58.16;97916.73;1750508;80;20150;-85
2021/12/02 12:44:49;;;;;;;;;;;;;;;6.62;57.71;97923.41;1755097;80;20151;-86
2021/12/02 12:47:15;;;;;;;;;;;;;;;6.40;57.47;97931.23;1754063;80;22468;-85
2021/12/02 12:49:42;;;;;;;;;;;;;;;6.60;57.67;97948.98;1751226;80;20199;-85
2021/12/02 12:52:20;;;;;;;;;;;;;;;6.62;56.28;97962.74;1755095;80;20189;-83
2021/12/02 12:55:17;;;;;;;;;;;;;;;6.43;55.84;97931.34;1751942;80;20157;-85
2021/12/02 12:58:15;;;;;;;;;;;;;;;6.41;55.86;97938.08;1760889;80;20883;-86
2021/12/02 13:00:55;;;;;;;;;;;;;;;6.33;55.42;97926.41;1755947;80;22661;-88
2021/12/02 13:05:59;;;;;;;;;;;;;;;6.26;55.58;97949.09;1749428;80;20386;-88
2021/12/02 13:08:33;;;;;;;;;;;;;;;6.22;55.75;98004.19;1753404;80;20170;-87
2021/12/02 13:11:01;;;;;;;;;;;;;;;6.30;55.89;97947.73;1752073;80;20485;-87
2021/12/02 13:13:31;;;;;;;;;;;;;;;6.03;56.34;98018.63;1751679;80;20169;-87
2021/12/02 13:16:24;;;;;;;;;;;;;;;6.02;56.54;97956.75;1738235;80;20449;-87
2021/12/02 13:19:11;;;;;;;;;;;;;;;6.06;55.95;97974.55;1753857;80;20193;-87
2021/12/02 13:21:38;;;;;;;;;;;;;;;6.18;56.29;97963.10;1756083;79;20645;-86
2021/12/02 13:24:14;;;;;;;;;;;;;;;6.12;56.62;97969.06;1758468;79;20214;-87
2021/12/02 13:26:44;;;;;;;;;;;;;;;6.08;56.83;97964.70;1755940;79;21135;-85
2021/12/02 13:29:14;;;;;;;;;;;;;;;6.08;56.61;97966.00;1756219;80;20197;-85